Waukee, Iowa
Current Conditions -  °F | °C
As of 11:18 AM on Friday 19 Dec 2014 (Local Time) from KDSM Reporting Station
Haze Haze  
Wind Chill: 26°   Ceiling: 3900
Heat Index: 32°   Visibility: 6mi
Dew Point: 27°   Wind: 6mph
Humidity: 82%   Direction: 160°SSE
Pressure: 30.26"   Gusts: NA
Location:  41.61°N, 93.89°W
Report Text: KDSM 191718Z 16005KT 6SM HZ FEW007 OVC039 00/M03 A3026 RMK AO2 T00001028
Loading
Personal Weather Stations






























Interactive Weather Map New forecast layout! Learn more

10-Day Weather Forecast

Advertisements
Track Severe Weather on mobile